Terminal Aerodrome Forecast
Issued by NWS Corpus Christi, TX

Home | Current Version | Previous Version | Text Only | Print | Product List | Glossary On
Versions: 1 2 3 4 5 6 7 8 9 10 11 12 13 14 15 16 17 18 19 20
000
FTUS44 KCRP 251735
TAFVCT
TAF
KVCT 251735Z 2518/2618 03010G18KT P6SM SKC
     FM252200 06008KT P6SM SKC
     FM260900 06004KT P6SM SCT025
      TEMPO 2610/2612 5SM BR SCT001 BKN025
     FM261500 09006KT P6SM SCT025 BKN250
     FM261700 16012G18KT P6SM VCSH BKN030 OVC250=

USA.gov is the U.S. government's official web portal to all federal, state and local government web resources and services.